Dolomite, Alabama
Current Conditions -  °F | °C
As of 8:53 AM on Monday 24 Nov 2014 (Local Time) from KBHM Reporting Station
Broken Clouds Broken Clouds  
Wind Chill: 18°   Ceiling: 3000
Heat Index: 18°   Visibility: 10mi
Dew Point: 12°   Wind: 15mph
Humidity: 70%   Direction: 250°WSW
Pressure: 29.83"   Gusts: 25mph
Location:  33.46°N, 86.96°W
Report Text: KBHM 241453Z 25013G22KT 10SM FEW023 BKN030 18/12 A2983 RMK AO2 SLP096 T01780122 53029
Loading
Personal Weather Stations






























Interactive Weather Map New forecast layout! Learn more

10-Day Weather Forecast

Advertisements
Track Severe Weather on mobile